sensor_id;sensor_type;location;lat;lon;timestamp;P1;durP1;ratioP1;P2;durP2;ratioP2
27161;SDS011;54464;50.558;9.704;2023-12-29T00:00:02;1.97;;;1.53;;
27161;SDS011;54464;50.558;9.704;2023-12-29T00:02:28;2.27;;;1.50;;
27161;SDS011;54464;50.558;9.704;2023-12-29T00:04:54;2.70;;;1.70;;
27161;SDS011;54464;50.558;9.704;2023-12-29T00:07:19;2.27;;;1.70;;
27161;SDS011;54464;50.558;9.704;2023-12-29T00:09:45;1.60;;;1.40;;
27161;SDS011;54464;50.558;9.704;2023-12-29T00:12:10;2.57;;;1.50;;
27161;SDS011;54464;50.558;9.704;2023-12-29T00:14:36;1.37;;;1.27;;
27161;SDS011;54464;50.558;9.704;2023-12-29T00:17:03;1.77;;;1.67;;
27161;SDS011;54464;50.558;9.704;2023-12-29T00:19:29;1.97;;;1.60;;
27161;SDS011;54464;50.558;9.704;2023-12-29T00:21:54;1.50;;;1.40;;
27161;SDS011;54464;50.558;9.704;2023-12-29T00:24:20;1.40;;;1.30;;
27161;SDS011;54464;50.558;9.704;2023-12-29T00:26:45;1.80;;;1.43;;
27161;SDS011;54464;50.558;9.704;2023-12-29T00:29:12;1.50;;;1.30;;
27161;SDS011;54464;50.558;9.704;2023-12-29T00:31:40;3.00;;;1.63;;
27161;SDS011;54464;50.558;9.704;2023-12-29T00:34:05;1.43;;;1.33;;
27161;SDS011;54464;50.558;9.704;2023-12-29T00:36:31;2.03;;;1.67;;
27161;SDS011;54464;50.558;9.704;2023-12-29T00:38:57;1.57;;;1.47;;
27161;SDS011;54464;50.558;9.704;2023-12-29T00:41:22;2.40;;;1.70;;
27161;SDS011;54464;50.558;9.704;2023-12-29T00:43:48;2.03;;;1.73;;
27161;SDS011;54464;50.558;9.704;2023-12-29T00:46:14;1.93;;;1.70;;
27161;SDS011;54464;50.558;9.704;2023-12-29T00:48:40;1.90;;;1.70;;
27161;SDS011;54464;50.558;9.704;2023-12-29T00:51:06;2.20;;;2.00;;
27161;SDS011;54464;50.558;9.704;2023-12-29T00:53:32;2.10;;;1.90;;
27161;SDS011;54464;50.558;9.704;2023-12-29T00:56:00;3.10;;;1.80;;
27161;SDS011;54464;50.558;9.704;2023-12-29T00:58:25;2.33;;;1.60;;
27161;SDS011;54464;50.558;9.704;2023-12-29T01:00:51;1.70;;;1.60;;
27161;SDS011;54464;50.558;9.704;2023-12-29T01:03:17;1.63;;;1.53;;
27161;SDS011;54464;50.558;9.704;2023-12-29T01:05:42;1.80;;;1.60;;
27161;SDS011;54464;50.558;9.704;2023-12-29T01:08:08;1.70;;;1.60;;
27161;SDS011;54464;50.558;9.704;2023-12-29T01:10:34;1.40;;;1.30;;
27161;SDS011;54464;50.558;9.704;2023-12-29T01:12:59;2.50;;;1.57;;
27161;SDS011;54464;50.558;9.704;2023-12-29T01:15:25;3.07;;;1.80;;
27161;SDS011;54464;50.558;9.704;2023-12-29T01:17:50;2.37;;;1.50;;
27161;SDS011;54464;50.558;9.704;2023-12-29T01:20:16;1.70;;;1.60;;
27161;SDS011;54464;50.558;9.704;2023-12-29T01:22:41;2.40;;;1.77;;
27161;SDS011;54464;50.558;9.704;2023-12-29T01:25:07;2.00;;;1.70;;
27161;SDS011;54464;50.558;9.704;2023-12-29T01:27:33;2.53;;;1.80;;
27161;SDS011;54464;50.558;9.704;2023-12-29T01:30:01;2.03;;;1.83;;
27161;SDS011;54464;50.558;9.704;2023-12-29T01:32:26;2.10;;;1.70;;
27161;SDS011;54464;50.558;9.704;2023-12-29T01:34:52;2.30;;;2.03;;
27161;SDS011;54464;50.558;9.704;2023-12-29T01:37:18;1.97;;;1.80;;
27161;SDS011;54464;50.558;9.704;2023-12-29T01:39:43;3.27;;;1.80;;
27161;SDS011;54464;50.558;9.704;2023-12-29T01:42:09;2.30;;;1.90;;
27161;SDS011;54464;50.558;9.704;2023-12-29T01:44:36;2.80;;;2.00;;
27161;SDS011;54464;50.558;9.704;2023-12-29T01:47:01;3.43;;;2.00;;
27161;SDS011;54464;50.558;9.704;2023-12-29T01:49:30;2.63;;;2.00;;
27161;SDS011;54464;50.558;9.704;2023-12-29T01:51:58;2.53;;;2.30;;
27161;SDS011;54464;50.558;9.704;2023-12-29T01:54:26;2.73;;;1.83;;
27161;SDS011;54464;50.558;9.704;2023-12-29T01:56:56;2.37;;;2.00;;
27161;SDS011;54464;50.558;9.704;2023-12-29T01:59:24;2.50;;;1.87;;
27161;SDS011;54464;50.558;9.704;2023-12-29T02:01:51;1.93;;;1.73;;
27161;SDS011;54464;50.558;9.704;2023-12-29T02:04:20;2.07;;;1.80;;
27161;SDS011;54464;50.558;9.704;2023-12-29T02:06:47;2.63;;;1.80;;
27161;SDS011;54464;50.558;9.704;2023-12-29T02:09:13;2.20;;;1.80;;
27161;SDS011;54464;50.558;9.704;2023-12-29T02:11:38;2.27;;;2.00;;
27161;SDS011;54464;50.558;9.704;2023-12-29T02:14:04;2.37;;;1.97;;
27161;SDS011;54464;50.558;9.704;2023-12-29T02:16:35;2.00;;;1.80;;
27161;SDS011;54464;50.558;9.704;2023-12-29T02:22:03;2.60;;;2.00;;
27161;SDS011;54464;50.558;9.704;2023-12-29T02:24:29;2.00;;;1.80;;
27161;SDS011;54464;50.558;9.704;2023-12-29T02:26:57;3.47;;;2.10;;
27161;SDS011;54464;50.558;9.704;2023-12-29T02:29:30;2.30;;;2.00;;
27161;SDS011;54464;50.558;9.704;2023-12-29T02:31:59;2.40;;;1.93;;
27161;SDS011;54464;50.558;9.704;2023-12-29T02:34:25;2.80;;;2.00;;
27161;SDS011;54464;50.558;9.704;2023-12-29T02:36:54;2.83;;;1.80;;
27161;SDS011;54464;50.558;9.704;2023-12-29T02:39:21;3.27;;;1.70;;
27161;SDS011;54464;50.558;9.704;2023-12-29T02:41:47;1.73;;;1.63;;
27161;SDS011;54464;50.558;9.704;2023-12-29T02:44:13;1.93;;;1.80;;
27161;SDS011;54464;50.558;9.704;2023-12-29T02:46:38;2.43;;;1.80;;
27161;SDS011;54464;50.558;9.704;2023-12-29T02:49:04;2.27;;;1.90;;
27161;SDS011;54464;50.558;9.704;2023-12-29T02:51:30;2.20;;;1.80;;
27161;SDS011;54464;50.558;9.704;2023-12-29T02:53:55;1.70;;;1.60;;
27161;SDS011;54464;50.558;9.704;2023-12-29T02:56:21;2.23;;;1.87;;
27161;SDS011;54464;50.558;9.704;2023-12-29T02:58:47;1.93;;;1.70;;
27161;SDS011;54464;50.558;9.704;2023-12-29T03:01:13;2.27;;;1.87;;
27161;SDS011;54464;50.558;9.704;2023-12-29T03:03:39;1.90;;;1.60;;
27161;SDS011;54464;50.558;9.704;2023-12-29T03:06:05;3.43;;;1.90;;
27161;SDS011;54464;50.558;9.704;2023-12-29T03:08:31;3.03;;;1.90;;
27161;SDS011;54464;50.558;9.704;2023-12-29T03:10:57;2.60;;;1.50;;
27161;SDS011;54464;50.558;9.704;2023-12-29T03:13:23;1.80;;;1.70;;
27161;SDS011;54464;50.558;9.704;2023-12-29T03:15:48;1.60;;;1.50;;
27161;SDS011;54464;50.558;9.704;2023-12-29T03:18:14;1.97;;;1.73;;
27161;SDS011;54464;50.558;9.704;2023-12-29T03:20:40;1.70;;;1.60;;
27161;SDS011;54464;50.558;9.704;2023-12-29T03:23:05;1.73;;;1.63;;
27161;SDS011;54464;50.558;9.704;2023-12-29T03:25:31;4.53;;;1.93;;
27161;SDS011;54464;50.558;9.704;2023-12-29T03:27:57;2.17;;;1.67;;
27161;SDS011;54464;50.558;9.704;2023-12-29T03:30:23;3.23;;;1.73;;
27161;SDS011;54464;50.558;9.704;2023-12-29T03:32:49;2.40;;;2.00;;
27161;SDS011;54464;50.558;9.704;2023-12-29T03:35:15;2.17;;;1.73;;
27161;SDS011;54464;50.558;9.704;2023-12-29T03:37:41;3.47;;;1.97;;
27161;SDS011;54464;50.558;9.704;2023-12-29T03:40:07;2.93;;;1.70;;
27161;SDS011;54464;50.558;9.704;2023-12-29T03:42:33;2.00;;;1.80;;
27161;SDS011;54464;50.558;9.704;2023-12-29T03:44:59;2.70;;;2.00;;
27161;SDS011;54464;50.558;9.704;2023-12-29T03:47:25;2.90;;;2.10;;
27161;SDS011;54464;50.558;9.704;2023-12-29T03:49:50;4.17;;;2.00;;
27161;SDS011;54464;50.558;9.704;2023-12-29T03:52:16;2.83;;;1.83;;
27161;SDS011;54464;50.558;9.704;2023-12-29T03:54:41;3.00;;;1.50;;
27161;SDS011;54464;50.558;9.704;2023-12-29T03:57:10;2.40;;;1.60;;
27161;SDS011;54464;50.558;9.704;2023-12-29T03:59:36;1.70;;;1.60;;
27161;SDS011;54464;50.558;9.704;2023-12-29T04:02:02;2.53;;;1.80;;
27161;SDS011;54464;50.558;9.704;2023-12-29T04:04:28;3.20;;;1.77;;
27161;SDS011;54464;50.558;9.704;2023-12-29T04:06:54;2.10;;;1.50;;
27161;SDS011;54464;50.558;9.704;2023-12-29T04:09:19;2.70;;;1.90;;
27161;SDS011;54464;50.558;9.704;2023-12-29T04:11:48;2.73;;;1.60;;
27161;SDS011;54464;50.558;9.704;2023-12-29T04:14:14;3.47;;;1.70;;
27161;SDS011;54464;50.558;9.704;2023-12-29T04:16:39;2.10;;;1.50;;
27161;SDS011;54464;50.558;9.704;2023-12-29T04:19:05;2.53;;;1.80;;
27161;SDS011;54464;50.558;9.704;2023-12-29T04:21:40;3.83;;;2.00;;
27161;SDS011;54464;50.558;9.704;2023-12-29T04:24:08;2.30;;;1.70;;
27161;SDS011;54464;50.558;9.704;2023-12-29T04:26:37;2.20;;;1.70;;
27161;SDS011;54464;50.558;9.704;2023-12-29T04:29:03;2.90;;;1.93;;
27161;SDS011;54464;50.558;9.704;2023-12-29T04:31:28;2.73;;;1.97;;
27161;SDS011;54464;50.558;9.704;2023-12-29T04:33:54;1.77;;;1.63;;
27161;SDS011;54464;50.558;9.704;2023-12-29T04:36:20;3.80;;;1.63;;
27161;SDS011;54464;50.558;9.704;2023-12-29T04:38:45;2.73;;;1.90;;
27161;SDS011;54464;50.558;9.704;2023-12-29T04:41:11;4.60;;;2.00;;
27161;SDS011;54464;50.558;9.704;2023-12-29T04:43:54;3.33;;;1.87;;
27161;SDS011;54464;50.558;9.704;2023-12-29T04:46:19;4.23;;;1.70;;
27161;SDS011;54464;50.558;9.704;2023-12-29T04:48:45;1.83;;;1.70;;
27161;SDS011;54464;50.558;9.704;2023-12-29T04:51:11;1.60;;;1.50;;
27161;SDS011;54464;50.558;9.704;2023-12-29T04:53:45;2.60;;;1.90;;
27161;SDS011;54464;50.558;9.704;2023-12-29T04:56:11;2.83;;;1.50;;
27161;SDS011;54464;50.558;9.704;2023-12-29T04:58:37;3.20;;;1.60;;
27161;SDS011;54464;50.558;9.704;2023-12-29T05:01:05;2.63;;;1.80;;
27161;SDS011;54464;50.558;9.704;2023-12-29T05:03:35;3.03;;;1.77;;
27161;SDS011;54464;50.558;9.704;2023-12-29T05:06:01;2.17;;;1.60;;
27161;SDS011;54464;50.558;9.704;2023-12-29T05:08:29;2.80;;;1.60;;
27161;SDS011;54464;50.558;9.704;2023-12-29T05:11:01;4.40;;;2.00;;
27161;SDS011;54464;50.558;9.704;2023-12-29T05:13:26;2.93;;;2.00;;
27161;SDS011;54464;50.558;9.704;2023-12-29T05:16:01;4.20;;;1.80;;
27161;SDS011;54464;50.558;9.704;2023-12-29T05:18:28;5.77;;;2.00;;
27161;SDS011;54464;50.558;9.704;2023-12-29T05:21:00;2.97;;;1.90;;
27161;SDS011;54464;50.558;9.704;2023-12-29T05:23:26;2.03;;;1.80;;
27161;SDS011;54464;50.558;9.704;2023-12-29T05:25:52;2.50;;;1.70;;
27161;SDS011;54464;50.558;9.704;2023-12-29T05:28:18;2.27;;;1.80;;
27161;SDS011;54464;50.558;9.704;2023-12-29T05:30:52;3.40;;;2.20;;
27161;SDS011;54464;50.558;9.704;2023-12-29T05:33:18;3.87;;;1.90;;
27161;SDS011;54464;50.558;9.704;2023-12-29T05:35:44;3.30;;;1.90;;
27161;SDS011;54464;50.558;9.704;2023-12-29T05:38:09;2.97;;;2.00;;
27161;SDS011;54464;50.558;9.704;2023-12-29T05:40:35;3.73;;;2.00;;
27161;SDS011;54464;50.558;9.704;2023-12-29T05:43:01;3.10;;;1.90;;
27161;SDS011;54464;50.558;9.704;2023-12-29T05:45:26;3.10;;;1.90;;
27161;SDS011;54464;50.558;9.704;2023-12-29T05:47:55;2.73;;;1.80;;
27161;SDS011;54464;50.558;9.704;2023-12-29T05:50:20;3.13;;;1.80;;
27161;SDS011;54464;50.558;9.704;2023-12-29T05:52:46;2.13;;;1.60;;
27161;SDS011;54464;50.558;9.704;2023-12-29T05:55:16;2.90;;;1.80;;
27161;SDS011;54464;50.558;9.704;2023-12-29T05:57:42;2.30;;;1.77;;
27161;SDS011;54464;50.558;9.704;2023-12-29T06:00:08;3.37;;;1.80;;
27161;SDS011;54464;50.558;9.704;2023-12-29T06:02:42;1.93;;;1.47;;
27161;SDS011;54464;50.558;9.704;2023-12-29T06:05:10;3.40;;;1.90;;
27161;SDS011;54464;50.558;9.704;2023-12-29T06:07:36;2.20;;;1.70;;
27161;SDS011;54464;50.558;9.704;2023-12-29T06:10:02;2.30;;;1.63;;
27161;SDS011;54464;50.558;9.704;2023-12-29T06:12:28;3.93;;;1.77;;
27161;SDS011;54464;50.558;9.704;2023-12-29T06:14:54;1.73;;;1.63;;
27161;SDS011;54464;50.558;9.704;2023-12-29T06:17:19;1.77;;;1.50;;
27161;SDS011;54464;50.558;9.704;2023-12-29T06:19:45;2.57;;;1.90;;
27161;SDS011;54464;50.558;9.704;2023-12-29T06:22:11;3.37;;;1.80;;
27161;SDS011;54464;50.558;9.704;2023-12-29T06:24:42;3.50;;;1.90;;
27161;SDS011;54464;50.558;9.704;2023-12-29T06:27:08;2.37;;;1.97;;
27161;SDS011;54464;50.558;9.704;2023-12-29T06:29:34;3.67;;;1.80;;
27161;SDS011;54464;50.558;9.704;2023-12-29T06:32:00;2.73;;;1.57;;
27161;SDS011;54464;50.558;9.704;2023-12-29T06:34:32;2.30;;;1.63;;
27161;SDS011;54464;50.558;9.704;2023-12-29T06:36:57;3.07;;;2.00;;
27161;SDS011;54464;50.558;9.704;2023-12-29T06:39:23;3.67;;;1.90;;
27161;SDS011;54464;50.558;9.704;2023-12-29T06:41:54;1.80;;;1.50;;
27161;SDS011;54464;50.558;9.704;2023-12-29T06:44:20;1.70;;;1.60;;
27161;SDS011;54464;50.558;9.704;2023-12-29T06:46:49;2.20;;;1.80;;
27161;SDS011;54464;50.558;9.704;2023-12-29T06:49:17;1.70;;;1.60;;
27161;SDS011;54464;50.558;9.704;2023-12-29T06:51:43;2.77;;;1.77;;
27161;SDS011;54464;50.558;9.704;2023-12-29T06:54:09;3.47;;;1.80;;
27161;SDS011;54464;50.558;9.704;2023-12-29T06:56:35;3.60;;;2.00;;
27161;SDS011;54464;50.558;9.704;2023-12-29T06:59:04;3.20;;;1.70;;
27161;SDS011;54464;50.558;9.704;2023-12-29T07:01:29;1.70;;;1.60;;
27161;SDS011;54464;50.558;9.704;2023-12-29T07:03:55;3.50;;;1.90;;
27161;SDS011;54464;50.558;9.704;2023-12-29T07:06:21;2.00;;;1.80;;
27161;SDS011;54464;50.558;9.704;2023-12-29T07:08:49;2.47;;;1.73;;
27161;SDS011;54464;50.558;9.704;2023-12-29T07:11:15;2.40;;;1.50;;
27161;SDS011;54464;50.558;9.704;2023-12-29T07:13:41;2.40;;;1.60;;
27161;SDS011;54464;50.558;9.704;2023-12-29T07:16:06;4.10;;;1.53;;
27161;SDS011;54464;50.558;9.704;2023-12-29T07:18:32;2.50;;;1.60;;
27161;SDS011;54464;50.558;9.704;2023-12-29T07:20:58;3.80;;;1.77;;
27161;SDS011;54464;50.558;9.704;2023-12-29T07:23:29;3.80;;;1.60;;
27161;SDS011;54464;50.558;9.704;2023-12-29T07:25:58;3.13;;;1.60;;
27161;SDS011;54464;50.558;9.704;2023-12-29T07:28:24;6.43;;;2.30;;
27161;SDS011;54464;50.558;9.704;2023-12-29T07:30:50;1.60;;;1.50;;
27161;SDS011;54464;50.558;9.704;2023-12-29T07:33:18;1.90;;;1.50;;
27161;SDS011;54464;50.558;9.704;2023-12-29T07:35:44;3.83;;;1.80;;
27161;SDS011;54464;50.558;9.704;2023-12-29T07:38:09;2.90;;;1.50;;
27161;SDS011;54464;50.558;9.704;2023-12-29T07:40:35;3.77;;;1.60;;
27161;SDS011;54464;50.558;9.704;2023-12-29T07:43:06;2.47;;;1.63;;
27161;SDS011;54464;50.558;9.704;2023-12-29T07:45:33;3.57;;;1.80;;
27161;SDS011;54464;50.558;9.704;2023-12-29T07:47:58;2.30;;;1.87;;
27161;SDS011;54464;50.558;9.704;2023-12-29T07:50:25;3.13;;;1.70;;
27161;SDS011;54464;50.558;9.704;2023-12-29T07:52:50;2.57;;;1.70;;
27161;SDS011;54464;50.558;9.704;2023-12-29T07:55:16;2.80;;;1.60;;
27161;SDS011;54464;50.558;9.704;2023-12-29T07:57:48;2.13;;;1.70;;
27161;SDS011;54464;50.558;9.704;2023-12-29T08:00:18;2.27;;;2.07;;
27161;SDS011;54464;50.558;9.704;2023-12-29T08:02:44;2.40;;;1.80;;
27161;SDS011;54464;50.558;9.704;2023-12-29T08:05:13;2.20;;;1.80;;
27161;SDS011;54464;50.558;9.704;2023-12-29T08:07:40;3.13;;;1.70;;
27161;SDS011;54464;50.558;9.704;2023-12-29T08:10:06;3.90;;;1.90;;
27161;SDS011;54464;50.558;9.704;2023-12-29T08:12:33;2.73;;;2.03;;
27161;SDS011;54464;50.558;9.704;2023-12-29T08:14:59;3.77;;;2.00;;
27161;SDS011;54464;50.558;9.704;2023-12-29T08:17:25;4.53;;;1.93;;
27161;SDS011;54464;50.558;9.704;2023-12-29T08:19:52;2.50;;;2.00;;
27161;SDS011;54464;50.558;9.704;2023-12-29T08:22:19;2.90;;;1.80;;
27161;SDS011;54464;50.558;9.704;2023-12-29T08:24:45;2.47;;;1.93;;
27161;SDS011;54464;50.558;9.704;2023-12-29T08:27:13;2.87;;;1.70;;
27161;SDS011;54464;50.558;9.704;2023-12-29T08:29:42;2.27;;;1.80;;
27161;SDS011;54464;50.558;9.704;2023-12-29T08:32:08;4.80;;;2.40;;
27161;SDS011;54464;50.558;9.704;2023-12-29T08:34:36;2.67;;;1.83;;
27161;SDS011;54464;50.558;9.704;2023-12-29T08:37:06;2.53;;;2.10;;
27161;SDS011;54464;50.558;9.704;2023-12-29T08:39:34;2.20;;;1.60;;
27161;SDS011;54464;50.558;9.704;2023-12-29T08:42:03;3.17;;;2.30;;
27161;SDS011;54464;50.558;9.704;2023-12-29T08:44:32;2.47;;;1.93;;
27161;SDS011;54464;50.558;9.704;2023-12-29T08:46:58;2.97;;;1.87;;
27161;SDS011;54464;50.558;9.704;2023-12-29T08:49:23;2.83;;;1.60;;
27161;SDS011;54464;50.558;9.704;2023-12-29T08:51:49;2.77;;;1.90;;
27161;SDS011;54464;50.558;9.704;2023-12-29T08:54:14;4.27;;;2.00;;
27161;SDS011;54464;50.558;9.704;2023-12-29T08:56:49;4.13;;;1.70;;
27161;SDS011;54464;50.558;9.704;2023-12-29T08:59:15;3.37;;;1.73;;
27161;SDS011;54464;50.558;9.704;2023-12-29T09:01:44;2.20;;;1.73;;
27161;SDS011;54464;50.558;9.704;2023-12-29T09:04:18;2.40;;;1.77;;
27161;SDS011;54464;50.558;9.704;2023-12-29T09:06:44;2.37;;;1.73;;
27161;SDS011;54464;50.558;9.704;2023-12-29T09:09:10;2.73;;;1.90;;
27161;SDS011;54464;50.558;9.704;2023-12-29T09:11:38;2.00;;;1.70;;
27161;SDS011;54464;50.558;9.704;2023-12-29T09:14:05;3.00;;;1.90;;
27161;SDS011;54464;50.558;9.704;2023-12-29T09:16:31;3.70;;;1.90;;
27161;SDS011;54464;50.558;9.704;2023-12-29T09:18:56;2.33;;;1.80;;
27161;SDS011;54464;50.558;9.704;2023-12-29T09:21:22;3.67;;;1.57;;
27161;SDS011;54464;50.558;9.704;2023-12-29T09:23:48;2.03;;;1.80;;
27161;SDS011;54464;50.558;9.704;2023-12-29T09:26:13;1.97;;;1.70;;
27161;SDS011;54464;50.558;9.704;2023-12-29T09:28:47;3.03;;;1.63;;
27161;SDS011;54464;50.558;9.704;2023-12-29T09:31:15;2.83;;;1.90;;
27161;SDS011;54464;50.558;9.704;2023-12-29T09:33:46;1.53;;;1.40;;
27161;SDS011;54464;50.558;9.704;2023-12-29T09:36:12;2.17;;;1.50;;
27161;SDS011;54464;50.558;9.704;2023-12-29T09:38:38;3.17;;;1.30;;
27161;SDS011;54464;50.558;9.704;2023-12-29T09:41:11;2.13;;;1.70;;
27161;SDS011;54464;50.558;9.704;2023-12-29T09:43:40;1.53;;;1.30;;
27161;SDS011;54464;50.558;9.704;2023-12-29T09:46:09;1.60;;;1.23;;
27161;SDS011;54464;50.558;9.704;2023-12-29T09:48:38;2.50;;;1.60;;
27161;SDS011;54464;50.558;9.704;2023-12-29T09:51:05;2.37;;;1.50;;
27161;SDS011;54464;50.558;9.704;2023-12-29T09:53:51;1.23;;;1.10;;
27161;SDS011;54464;50.558;9.704;2023-12-29T09:56:22;2.37;;;1.30;;
27161;SDS011;54464;50.558;9.704;2023-12-29T09:58:51;2.00;;;1.43;;
27161;SDS011;54464;50.558;9.704;2023-12-29T10:01:18;5.10;;;1.40;;
27161;SDS011;54464;50.558;9.704;2023-12-29T10:03:44;1.77;;;1.30;;
27161;SDS011;54464;50.558;9.704;2023-12-29T10:06:11;1.70;;;1.17;;
27161;SDS011;54464;50.558;9.704;2023-12-29T10:08:45;2.57;;;1.40;;
27161;SDS011;54464;50.558;9.704;2023-12-29T10:11:12;3.87;;;1.33;;
27161;SDS011;54464;50.558;9.704;2023-12-29T10:13:40;3.80;;;1.47;;
27161;SDS011;54464;50.558;9.704;2023-12-29T10:16:13;3.03;;;1.30;;
27161;SDS011;54464;50.558;9.704;2023-12-29T10:21:36;3.57;;;1.30;;
27161;SDS011;54464;50.558;9.704;2023-12-29T10:24:17;2.90;;;1.27;;
27161;SDS011;54464;50.558;9.704;2023-12-29T10:26:48;2.70;;;1.27;;
27161;SDS011;54464;50.558;9.704;2023-12-29T10:29:14;3.33;;;1.20;;
27161;SDS011;54464;50.558;9.704;2023-12-29T10:31:40;2.90;;;1.37;;
27161;SDS011;54464;50.558;9.704;2023-12-29T10:36:56;2.10;;;1.13;;
27161;SDS011;54464;50.558;9.704;2023-12-29T10:39:25;1.70;;;1.30;;
27161;SDS011;54464;50.558;9.704;2023-12-29T10:42:04;4.57;;;1.40;;
27161;SDS011;54464;50.558;9.704;2023-12-29T10:44:31;2.10;;;1.03;;
27161;SDS011;54464;50.558;9.704;2023-12-29T10:46:58;4.77;;;1.40;;
27161;SDS011;54464;50.558;9.704;2023-12-29T10:49:24;2.37;;;1.10;;
27161;SDS011;54464;50.558;9.704;2023-12-29T10:51:49;1.77;;;1.20;;
27161;SDS011;54464;50.558;9.704;2023-12-29T10:54:19;2.23;;;1.20;;
27161;SDS011;54464;50.558;9.704;2023-12-29T10:56:59;1.37;;;1.00;;
27161;SDS011;54464;50.558;9.704;2023-12-29T10:59:29;1.70;;;1.03;;
27161;SDS011;54464;50.558;9.704;2023-12-29T11:01:55;2.30;;;1.10;;
27161;SDS011;54464;50.558;9.704;2023-12-29T11:04:24;2.27;;;1.10;;
27161;SDS011;54464;50.558;9.704;2023-12-29T11:06:49;1.30;;;1.00;;
27161;SDS011;54464;50.558;9.704;2023-12-29T11:11:59;2.77;;;1.20;;
27161;SDS011;54464;50.558;9.704;2023-12-29T11:14:29;1.50;;;0.93;;
27161;SDS011;54464;50.558;9.704;2023-12-29T11:16:56;2.73;;;1.10;;
27161;SDS011;54464;50.558;9.704;2023-12-29T11:19:23;2.17;;;1.00;;
27161;SDS011;54464;50.558;9.704;2023-12-29T11:21:53;1.30;;;1.00;;
27161;SDS011;54464;50.558;9.704;2023-12-29T11:24:20;2.47;;;1.17;;
27161;SDS011;54464;50.558;9.704;2023-12-29T11:26:48;3.90;;;1.00;;
27161;SDS011;54464;50.558;9.704;2023-12-29T11:29:15;2.10;;;1.07;;
27161;SDS011;54464;50.558;9.704;2023-12-29T11:31:41;1.40;;;1.27;;
27161;SDS011;54464;50.558;9.704;2023-12-29T11:37:15;2.17;;;1.80;;
27161;SDS011;54464;50.558;9.704;2023-12-29T11:39:56;1.37;;;1.20;;
27161;SDS011;54464;50.558;9.704;2023-12-29T11:42:28;3.53;;;1.20;;
27161;SDS011;54464;50.558;9.704;2023-12-29T11:44:59;4.03;;;0.90;;
27161;SDS011;54464;50.558;9.704;2023-12-29T11:47:51;2.30;;;1.10;;
27161;SDS011;54464;50.558;9.704;2023-12-29T11:50:27;1.10;;;1.00;;
27161;SDS011;54464;50.558;9.704;2023-12-29T11:52:57;1.57;;;0.90;;
27161;SDS011;54464;50.558;9.704;2023-12-29T11:55:27;3.00;;;0.90;;
27161;SDS011;54464;50.558;9.704;2023-12-29T11:57:57;2.63;;;0.90;;
27161;SDS011;54464;50.558;9.704;2023-12-29T12:00:44;2.03;;;0.97;;
27161;SDS011;54464;50.558;9.704;2023-12-29T12:03:18;1.27;;;1.00;;
27161;SDS011;54464;50.558;9.704;2023-12-29T12:05:51;2.40;;;1.30;;
27161;SDS011;54464;50.558;9.704;2023-12-29T12:08:28;1.40;;;1.10;;
27161;SDS011;54464;50.558;9.704;2023-12-29T12:10:54;4.23;;;1.00;;
27161;SDS011;54464;50.558;9.704;2023-12-29T12:19:14;1.20;;;0.90;;
27161;SDS011;54464;50.558;9.704;2023-12-29T12:21:42;1.80;;;0.90;;
27161;SDS011;54464;50.558;9.704;2023-12-29T12:24:11;2.47;;;1.10;;
27161;SDS011;54464;50.558;9.704;2023-12-29T12:26:40;1.20;;;1.10;;
27161;SDS011;54464;50.558;9.704;2023-12-29T12:29:08;0.93;;;0.90;;
27161;SDS011;54464;50.558;9.704;2023-12-29T12:31:34;2.10;;;1.00;;
27161;SDS011;54464;50.558;9.704;2023-12-29T12:34:00;2.10;;;1.10;;
27161;SDS011;54464;50.558;9.704;2023-12-29T12:36:26;1.00;;;0.90;;
27161;SDS011;54464;50.558;9.704;2023-12-29T12:38:55;1.30;;;1.10;;
27161;SDS011;54464;50.558;9.704;2023-12-29T12:41:25;1.77;;;0.90;;
27161;SDS011;54464;50.558;9.704;2023-12-29T12:49:13;1.70;;;1.07;;
27161;SDS011;54464;50.558;9.704;2023-12-29T12:51:40;1.70;;;1.07;;
27161;SDS011;54464;50.558;9.704;2023-12-29T12:54:06;3.53;;;1.10;;
27161;SDS011;54464;50.558;9.704;2023-12-29T12:56:32;2.57;;;1.00;;
27161;SDS011;54464;50.558;9.704;2023-12-29T12:58:58;2.57;;;1.00;;
27161;SDS011;54464;50.558;9.704;2023-12-29T13:01:27;2.90;;;0.97;;
27161;SDS011;54464;50.558;9.704;2023-12-29T13:03:54;2.20;;;1.00;;
27161;SDS011;54464;50.558;9.704;2023-12-29T13:06:23;1.40;;;1.03;;
27161;SDS011;54464;50.558;9.704;2023-12-29T13:08:51;2.60;;;0.70;;
27161;SDS011;54464;50.558;9.704;2023-12-29T13:11:21;2.53;;;1.00;;
27161;SDS011;54464;50.558;9.704;2023-12-29T13:13:49;3.40;;;0.70;;
27161;SDS011;54464;50.558;9.704;2023-12-29T13:16:15;1.37;;;0.90;;
27161;SDS011;54464;50.558;9.704;2023-12-29T13:18:43;1.17;;;0.87;;
27161;SDS011;54464;50.558;9.704;2023-12-29T13:21:11;1.63;;;1.20;;
27161;SDS011;54464;50.558;9.704;2023-12-29T13:23:37;3.27;;;1.90;;
27161;SDS011;54464;50.558;9.704;2023-12-29T13:26:07;2.53;;;1.00;;
27161;SDS011;54464;50.558;9.704;2023-12-29T13:28:35;3.37;;;1.07;;
27161;SDS011;54464;50.558;9.704;2023-12-29T13:31:01;1.80;;;0.90;;
27161;SDS011;54464;50.558;9.704;2023-12-29T13:33:32;2.93;;;1.70;;
27161;SDS011;54464;50.558;9.704;2023-12-29T13:39:07;1.73;;;1.03;;
27161;SDS011;54464;50.558;9.704;2023-12-29T13:41:57;1.07;;;0.90;;
27161;SDS011;54464;50.558;9.704;2023-12-29T13:44:25;2.70;;;1.30;;
27161;SDS011;54464;50.558;9.704;2023-12-29T13:46:56;1.73;;;0.83;;
27161;SDS011;54464;50.558;9.704;2023-12-29T13:49:22;1.43;;;0.80;;
27161;SDS011;54464;50.558;9.704;2023-12-29T13:51:48;2.17;;;0.80;;
27161;SDS011;54464;50.558;9.704;2023-12-29T13:54:13;2.83;;;0.83;;
27161;SDS011;54464;50.558;9.704;2023-12-29T13:56:54;2.83;;;1.10;;
27161;SDS011;54464;50.558;9.704;2023-12-29T13:59:28;1.07;;;0.80;;
27161;SDS011;54464;50.558;9.704;2023-12-29T14:07:43;2.60;;;0.90;;
27161;SDS011;54464;50.558;9.704;2023-12-29T14:10:12;1.03;;;0.70;;
27161;SDS011;54464;50.558;9.704;2023-12-29T14:12:37;1.07;;;0.90;;
27161;SDS011;54464;50.558;9.704;2023-12-29T14:15:06;0.80;;;0.80;;
27161;SDS011;54464;50.558;9.704;2023-12-29T14:17:33;1.60;;;1.00;;
27161;SDS011;54464;50.558;9.704;2023-12-29T14:19:58;2.70;;;1.20;;
27161;SDS011;54464;50.558;9.704;2023-12-29T14:22:29;1.20;;;0.97;;
27161;SDS011;54464;50.558;9.704;2023-12-29T14:25:15;1.70;;;1.13;;
27161;SDS011;54464;50.558;9.704;2023-12-29T14:27:41;0.80;;;0.80;;
27161;SDS011;54464;50.558;9.704;2023-12-29T14:30:17;1.00;;;0.90;;
27161;SDS011;54464;50.558;9.704;2023-12-29T14:32:43;3.13;;;1.20;;
27161;SDS011;54464;50.558;9.704;2023-12-29T14:35:09;1.00;;;0.80;;
27161;SDS011;54464;50.558;9.704;2023-12-29T14:37:35;1.80;;;0.90;;
27161;SDS011;54464;50.558;9.704;2023-12-29T14:40:01;2.33;;;1.40;;
27161;SDS011;54464;50.558;9.704;2023-12-29T14:42:27;1.47;;;0.90;;
27161;SDS011;54464;50.558;9.704;2023-12-29T14:44:52;2.33;;;1.10;;
27161;SDS011;54464;50.558;9.704;2023-12-29T14:47:18;1.33;;;0.80;;
27161;SDS011;54464;50.558;9.704;2023-12-29T14:49:44;1.53;;;1.43;;
27161;SDS011;54464;50.558;9.704;2023-12-29T14:52:10;2.20;;;0.93;;
27161;SDS011;54464;50.558;9.704;2023-12-29T14:54:37;2.17;;;1.47;;
27161;SDS011;54464;50.558;9.704;2023-12-29T14:57:04;2.37;;;0.83;;
27161;SDS011;54464;50.558;9.704;2023-12-29T14:59:30;1.53;;;0.77;;
27161;SDS011;54464;50.558;9.704;2023-12-29T15:01:56;1.40;;;0.90;;
27161;SDS011;54464;50.558;9.704;2023-12-29T15:04:21;1.87;;;0.90;;
27161;SDS011;54464;50.558;9.704;2023-12-29T15:06:47;1.20;;;1.00;;
27161;SDS011;54464;50.558;9.704;2023-12-29T15:09:12;1.20;;;0.80;;
27161;SDS011;54464;50.558;9.704;2023-12-29T15:11:38;1.40;;;1.30;;
27161;SDS011;54464;50.558;9.704;2023-12-29T15:14:04;1.63;;;1.20;;
27161;SDS011;54464;50.558;9.704;2023-12-29T15:16:33;1.47;;;1.10;;
27161;SDS011;54464;50.558;9.704;2023-12-29T15:19:09;1.40;;;0.90;;
27161;SDS011;54464;50.558;9.704;2023-12-29T15:21:37;0.87;;;0.80;;
27161;SDS011;54464;50.558;9.704;2023-12-29T15:24:32;0.70;;;0.70;;